This is the latest recevied weather packets stored in our database for station/object K7NDG. If no packets are shown the sender has not sent any weather packets the latest 10 day(s).
| Time | Temp. | Humidity | Pressure | Rain* | Wind** | Luminosity | Snow |
|---|---|---|---|---|---|---|---|
| 1778032216 | 15° C | 73% | 1016.8 hPa | 0 mm | - | 55 W/m² | - |
| 1778031004 | 16.11° C | 71% | 1016.5 hPa | 0 mm | - | 73 W/m² | - |
| 1778029490 | 16.67° C | 70% | 1016.4 hPa | 0 mm | - | 120 W/m² | - |
| 1778027669 | 17.78° C | 67% | 1016.4 hPa | 0 mm | - | 166 W/m² | - |
| 1778027366 | 17.78° C | 66% | 1016.5 hPa | 0 mm | - | 168 W/m² | - |
| 1778027061 | 17.78° C | 67% | 1016.6 hPa | 0 mm | - | 146 W/m² | - |
| 1778026455 | 17.78° C | 67% | 1016.8 hPa | 0 mm | - | 157 W/m² | - |
| 1778026152 | 17.78° C | 65% | 1016.5 hPa | 0 mm | - | 148 W/m² | - |
| 1778025546 | 17.78° C | 67% | 1016.7 hPa | 0 mm | - | 286 W/m² | - |
| 1778023428 | 17.78° C | 68% | 1016.8 hPa | 0 mm | - | 252 W/m² | - |
| 1778021004 | 17.78° C | 71% | 1017.3 hPa | 0 mm | - | 242 W/m² | - |
| 1778020700 | 17.78° C | 69% | 1017.3 hPa | 0 mm | - | 252 W/m² | - |
| 1778020093 | 17.78° C | 71% | 1017.2 hPa | 0 mm | - | 257 W/m² | - |
| 1778019789 | 17.78° C | 72% | 1017.3 hPa | 0 mm | - | 250 W/m² | - |
| 1778019487 | 17.22° C | 71% | 1017.1 hPa | 0 mm | - | 247 W/m² | - |
| 1778018880 | 17.22° C | 71% | 1017.3 hPa | 0 mm | - | 248 W/m² | - |
| 1778017065 | 16.67° C | 72% | 1017.7 hPa | 0 mm | - | 235 W/m² | - |
| 1778016458 | 17.22° C | 72% | 1017.7 hPa | 0 mm | - | 219 W/m² | - |
| 1778016156 | 17.22° C | 72% | 1017.5 hPa | 0 mm | - | 231 W/m² | - |
| 1778015550 | 17.22° C | 73% | 1017.4 hPa | 0 mm | - | 272 W/m² | - |
| 1778014943 | 16.67° C | 73% | 1017.5 hPa | 0 mm | - | 243 W/m² | - |
| 1778013733 | 16.11° C | 75% | 1017.7 hPa | 0 mm | - | 199 W/m² | - |
| 1778013430 | 16.11° C | 75% | 1017.4 hPa | 0 mm | - | 185 W/m² | - |
| 1778013126 | 16.11° C | 75% | 1017.8 hPa | 0 mm | - | 160 W/m² | - |
| 1778012822 | 16.11° C | 75% | 1017.8 hPa | 0 mm | - | 179 W/m² | - |
* Rain latest hour (hover to see other rain measurements)
** Current wind speed in m/s (hover to see current wind gust speed)